Terminal Aerodrome Forecast
Issued by NWS

Home | Current Version | Previous Version | Text Only | Print | Product List | Glossary On
Versions: 1 2 3 4 5 6 7 8 9 10 11 12 13 14 15 16 17 18 19 20
000
FTUS41 KGYX 312215 AAA
TAFHIE
TAF AMD
KHIE 312215Z 3122/0118 31010KT P6SM SCT040
     FM010000 00000KT P6SM SKC
     FM010500 00000KT 3SM BR SKC
      TEMPO 0106/0110 2SM BR SCT002=

USA.gov is the U.S. government's official web portal to all federal, state and local government web resources and services.